createdAt,value
2023-07-17T00:00:12.882Z,2.13
2023-07-17T00:02:41.888Z,2.50
2023-07-17T00:05:14.882Z,2.35
2023-07-17T00:07:44.206Z,2.88
2023-07-17T00:10:13.670Z,2.35
2023-07-17T00:12:42.827Z,2.70
2023-07-17T00:15:11.757Z,2.35
2023-07-17T00:17:40.234Z,3.20
2023-07-17T00:20:12.779Z,3.28
2023-07-17T00:22:43.830Z,2.83
2023-07-17T00:25:12.479Z,2.53
2023-07-17T00:27:40.992Z,2.70
2023-07-17T00:30:10.613Z,2.88
2023-07-17T00:32:38.988Z,2.55
2023-07-17T00:35:10.356Z,2.53
2023-07-17T00:37:39.128Z,2.83
2023-07-17T00:40:10.691Z,2.58
2023-07-17T00:42:39.631Z,2.83
2023-07-17T00:45:09.021Z,2.55
2023-07-17T00:47:38.647Z,2.85
2023-07-17T00:50:07.985Z,2.60
2023-07-17T00:52:36.775Z,2.38
2023-07-17T00:55:09.524Z,2.60
2023-07-17T00:57:38.262Z,2.40
2023-07-17T01:00:10.140Z,2.70
2023-07-17T01:02:40.651Z,2.90
2023-07-17T01:05:10.091Z,2.53
2023-07-17T01:07:40.386Z,2.92
2023-07-17T01:10:12.146Z,2.90
2023-07-17T01:12:40.664Z,2.75
2023-07-17T01:15:10.365Z,2.67
2023-07-17T01:17:38.893Z,2.83
2023-07-17T01:20:10.788Z,2.97
2023-07-17T01:22:55.126Z,3.00
2023-07-17T01:25:23.485Z,2.72
2023-07-17T01:27:58.056Z,2.70
2023-07-17T01:30:26.400Z,3.33
2023-07-17T01:32:55.217Z,3.22
2023-07-17T01:35:25.489Z,2.88
2023-07-17T01:37:55.174Z,2.90
2023-07-17T01:40:23.404Z,2.80
2023-07-17T01:42:53.933Z,3.15
2023-07-17T01:45:24.608Z,2.92
2023-07-17T01:47:53.021Z,2.58
2023-07-17T01:50:21.287Z,2.60
2023-07-17T01:52:49.655Z,2.60
2023-07-17T01:55:19.786Z,2.35
2023-07-17T01:57:48.053Z,2.78
2023-07-17T02:00:16.764Z,2.60
2023-07-17T02:02:46.446Z,2.90
2023-07-17T02:05:14.862Z,2.88
2023-07-17T02:07:43.703Z,3.05
2023-07-17T02:10:12.258Z,2.40
2023-07-17T02:12:41.841Z,3.13
2023-07-17T02:15:14.081Z,2.80
2023-07-17T02:17:42.537Z,3.33
2023-07-17T02:20:14.536Z,3.10
2023-07-17T02:22:42.984Z,2.80
2023-07-17T02:25:13.019Z,2.78
2023-07-17T02:27:42.798Z,3.08
2023-07-17T02:30:12.412Z,3.38
2023-07-17T02:32:41.246Z,2.75
2023-07-17T02:35:10.846Z,2.53
2023-07-17T02:37:39.175Z,2.75
2023-07-17T02:40:13.656Z,3.03
2023-07-17T02:42:43.458Z,2.75
2023-07-17T02:45:12.652Z,2.70
2023-07-17T02:47:40.986Z,2.85
2023-07-17T02:50:11.134Z,2.83
2023-07-17T02:52:39.564Z,2.90
2023-07-17T02:55:09.195Z,2.58
2023-07-17T02:57:38.654Z,2.60
2023-07-17T03:00:11.302Z,3.00
2023-07-17T03:02:42.364Z,2.58
2023-07-17T03:05:13.807Z,3.60
2023-07-17T03:07:46.200Z,3.15
2023-07-17T03:10:15.289Z,2.85
2023-07-17T03:12:43.612Z,3.05
2023-07-17T03:15:14.529Z,2.97
2023-07-17T03:17:43.039Z,2.78
2023-07-17T03:20:14.317Z,3.40
2023-07-17T03:22:42.863Z,2.88
2023-07-17T03:25:11.259Z,3.25
2023-07-17T03:27:39.713Z,3.08
2023-07-17T03:30:10.400Z,2.70
2023-07-17T03:32:40.562Z,2.92
2023-07-17T03:35:10.308Z,3.00
2023-07-17T03:37:38.541Z,3.30
2023-07-17T03:40:11.405Z,2.50
2023-07-17T03:42:39.979Z,2.72
2023-07-17T03:45:10.106Z,3.03
2023-07-17T03:47:41.260Z,3.42
2023-07-17T03:50:11.616Z,3.22
2023-07-17T03:52:40.308Z,2.95
2023-07-17T03:55:09.788Z,3.10
2023-07-17T03:57:38.059Z,2.97
2023-07-17T04:00:14.405Z,3.38
2023-07-17T04:02:45.579Z,3.20
2023-07-17T04:05:25.986Z,2.90
2023-07-17T04:07:54.551Z,2.88
2023-07-17T04:10:24.476Z,3.25
2023-07-17T04:12:52.888Z,2.67
2023-07-17T04:15:21.303Z,2.97
2023-07-17T04:17:51.164Z,3.42
2023-07-17T04:20:23.332Z,3.15
2023-07-17T04:22:51.741Z,2.90
2023-07-17T04:25:20.575Z,3.30
2023-07-17T04:27:49.014Z,3.05
2023-07-17T04:30:18.740Z,3.65
2023-07-17T04:32:47.716Z,3.13
2023-07-17T04:35:17.666Z,3.20
2023-07-17T04:37:46.190Z,3.30
2023-07-17T04:40:16.813Z,3.17
2023-07-17T04:42:48.215Z,3.17
2023-07-17T04:45:20.700Z,3.13
2023-07-17T04:47:49.826Z,3.15
2023-07-17T04:50:19.721Z,2.90
2023-07-17T04:52:48.131Z,3.20
2023-07-17T04:55:16.949Z,3.13
2023-07-17T04:57:45.248Z,3.47
2023-07-17T05:00:16.042Z,2.92
2023-07-17T05:02:45.249Z,3.13
2023-07-17T05:05:15.014Z,3.38
2023-07-17T05:07:44.792Z,3.15
2023-07-17T05:10:16.113Z,2.95
2023-07-17T05:12:44.856Z,3.88
2023-07-17T05:15:13.818Z,2.88
2023-07-17T05:17:42.869Z,2.95
2023-07-17T05:20:12.857Z,3.40
2023-07-17T05:22:41.547Z,3.35
2023-07-17T05:25:11.492Z,3.05
2023-07-17T05:27:39.976Z,3.45
2023-07-17T05:30:10.254Z,3.50
2023-07-17T05:32:39.163Z,3.00
2023-07-17T05:35:09.814Z,3.50
2023-07-17T05:37:42.739Z,3.60
2023-07-17T05:40:13.801Z,3.45
2023-07-17T05:42:42.097Z,3.17
2023-07-17T05:45:11.691Z,3.42
2023-07-17T05:47:40.745Z,3.00
2023-07-17T05:50:11.721Z,3.22
2023-07-17T05:52:40.510Z,3.40
2023-07-17T05:55:09.640Z,3.40
2023-07-17T05:57:39.702Z,3.25
2023-07-17T06:00:12.582Z,3.33
2023-07-17T06:02:44.104Z,3.50
2023-07-17T06:05:14.539Z,3.28
2023-07-17T06:07:44.822Z,4.00
2023-07-17T06:10:13.976Z,3.08
2023-07-17T06:12:43.748Z,3.10
2023-07-17T06:15:14.794Z,3.40
2023-07-17T06:17:44.755Z,3.08
2023-07-17T06:20:13.470Z,3.08
2023-07-17T06:22:41.916Z,2.85
2023-07-17T06:25:12.036Z,3.20
2023-07-17T06:27:41.111Z,3.00
2023-07-17T06:30:14.682Z,3.40
2023-07-17T06:32:43.265Z,3.28
2023-07-17T06:35:12.044Z,3.33
2023-07-17T06:37:40.309Z,3.40
2023-07-17T06:40:12.128Z,3.20
2023-07-17T06:42:40.763Z,3.13
2023-07-17T06:45:11.211Z,2.92
2023-07-17T06:47:40.904Z,3.20
2023-07-17T06:50:10.803Z,3.20
2023-07-17T06:52:40.275Z,3.05
2023-07-17T06:55:10.917Z,3.45
2023-07-17T06:57:39.366Z,2.67
2023-07-17T07:00:09.569Z,3.00
2023-07-17T07:02:40.352Z,2.75
2023-07-17T07:05:09.462Z,3.10
2023-07-17T07:07:37.939Z,3.08
2023-07-17T07:10:08.250Z,3.00
2023-07-17T07:12:36.960Z,2.63
2023-07-17T07:15:07.014Z,3.13
2023-07-17T07:17:35.315Z,3.05
2023-07-17T07:20:06.311Z,3.30
2023-07-17T07:22:34.937Z,3.58
2023-07-17T07:25:03.573Z,3.42
2023-07-17T07:27:32.618Z,3.05
2023-07-17T07:30:00.852Z,3.05
2023-07-17T07:32:29.170Z,3.25
2023-07-17T07:34:57.593Z,2.63
2023-07-17T07:37:27.353Z,3.28
2023-07-17T07:39:55.792Z,3.70
2023-07-17T07:42:24.271Z,3.05
2023-07-17T07:44:52.559Z,3.33
2023-07-17T07:47:27.519Z,3.08
2023-07-17T07:49:55.995Z,3.30
2023-07-17T07:52:25.820Z,3.38
2023-07-17T07:54:57.481Z,3.22
2023-07-17T07:57:26.507Z,3.83
2023-07-17T07:59:55.910Z,3.40
2023-07-17T08:02:25.127Z,3.25
2023-07-17T08:04:53.664Z,3.40
2023-07-17T08:07:26.220Z,3.00
2023-07-17T08:09:54.657Z,2.92
2023-07-17T08:12:22.912Z,3.42
2023-07-17T08:14:51.745Z,3.25
2023-07-17T08:17:20.075Z,2.97
2023-07-17T08:19:50.831Z,3.15
2023-07-17T08:22:19.172Z,3.58
2023-07-17T08:24:48.899Z,3.42
2023-07-17T08:27:17.463Z,3.63
2023-07-17T08:29:45.881Z,3.15
2023-07-17T08:32:14.092Z,2.92
2023-07-17T08:34:42.460Z,2.97
2023-07-17T08:37:11.288Z,3.28
2023-07-17T08:39:39.533Z,3.42
2023-07-17T08:42:12.997Z,2.85
2023-07-17T08:44:41.640Z,3.30
2023-07-17T08:47:10.628Z,3.67
2023-07-17T08:49:41.361Z,3.35
2023-07-17T08:52:12.122Z,3.50
2023-07-17T08:54:40.764Z,2.63
2023-07-17T08:57:11.773Z,3.53
2023-07-17T08:59:40.392Z,3.10
2023-07-17T09:02:08.774Z,3.17
2023-07-17T09:04:37.129Z,3.30
2023-07-17T09:07:05.904Z,3.50
2023-07-17T09:09:34.123Z,3.10
2023-07-17T09:12:11.511Z,3.38
2023-07-17T09:14:41.631Z,3.22
2023-07-17T09:17:11.744Z,3.20
2023-07-17T09:19:40.717Z,3.45
2023-07-17T09:22:09.959Z,3.28
2023-07-17T09:24:39.339Z,3.15
2023-07-17T09:27:09.998Z,3.63
2023-07-17T09:29:43.758Z,3.10
2023-07-17T09:32:20.903Z,3.70
2023-07-17T09:34:53.908Z,3.53
2023-07-17T09:37:22.320Z,3.38
2023-07-17T09:39:54.023Z,3.20
2023-07-17T09:42:26.989Z,3.33
2023-07-17T09:44:56.120Z,3.72
2023-07-17T09:47:24.630Z,3.53
2023-07-17T09:49:53.448Z,3.38
2023-07-17T09:52:22.614Z,3.88
2023-07-17T09:54:52.386Z,3.47
2023-07-17T09:57:30.120Z,3.50
2023-07-17T10:00:00.904Z,3.25
2023-07-17T10:02:35.634Z,3.33
2023-07-17T10:05:08.650Z,3.28
2023-07-17T10:07:39.889Z,3.80
2023-07-17T10:10:10.296Z,4.03
2023-07-17T10:12:41.690Z,3.83
2023-07-17T10:15:12.005Z,3.65
2023-07-17T10:17:40.456Z,3.75
2023-07-17T10:20:11.600Z,3.40
2023-07-17T10:22:45.320Z,3.58
2023-07-17T10:25:30.794Z,3.83
2023-07-17T10:28:02.481Z,3.50
2023-07-17T10:30:33.365Z,3.88
2023-07-17T10:33:11.974Z,3.70
2023-07-17T10:35:49.219Z,3.63
2023-07-17T10:39:18.194Z,4.18
2023-07-17T10:41:46.735Z,3.80
2023-07-17T10:44:21.718Z,3.53
2023-07-17T10:46:50.384Z,3.78
2023-07-17T10:49:19.970Z,3.70
2023-07-17T10:51:51.935Z,3.80
2023-07-17T10:54:21.328Z,3.80
2023-07-17T10:56:52.260Z,3.63
2023-07-17T10:59:22.761Z,3.40
2023-07-17T11:01:51.099Z,3.72
2023-07-17T11:04:20.318Z,3.20
2023-07-17T11:06:49.010Z,3.90
2023-07-17T11:09:17.971Z,3.47
2023-07-17T11:11:47.486Z,3.97
2023-07-17T11:14:16.289Z,3.85
2023-07-17T11:16:48.354Z,3.88
2023-07-17T11:19:17.474Z,3.30
2023-07-17T11:21:45.932Z,3.90
2023-07-17T11:24:14.427Z,3.67
2023-07-17T11:26:43.215Z,3.88
2023-07-17T11:29:11.583Z,3.90
2023-07-17T11:31:40.556Z,3.67
2023-07-17T11:34:12.275Z,4.20
2023-07-17T11:36:46.219Z,4.38
2023-07-17T11:39:16.612Z,4.00
2023-07-17T11:41:48.017Z,3.97
2023-07-17T11:44:18.169Z,4.03
2023-07-17T11:46:46.656Z,4.10
2023-07-17T11:49:16.450Z,4.25
2023-07-17T11:51:47.738Z,3.88
2023-07-17T11:54:16.428Z,3.78
2023-07-17T11:56:47.145Z,4.32
2023-07-17T11:59:20.535Z,4.50
2023-07-17T12:01:49.158Z,3.67
2023-07-17T12:04:20.144Z,3.97
2023-07-17T12:06:48.521Z,4.25
2023-07-17T12:09:17.093Z,3.80
2023-07-17T12:11:46.836Z,3.83
2023-07-17T12:14:16.199Z,4.00
2023-07-17T12:16:45.165Z,3.97
2023-07-17T12:19:13.913Z,4.20
2023-07-17T12:21:44.382Z,4.20
2023-07-17T12:24:14.439Z,4.22
2023-07-17T12:26:43.341Z,3.72
2023-07-17T12:29:12.215Z,3.83
2023-07-17T12:31:40.614Z,3.97
2023-07-17T12:34:10.701Z,3.95
2023-07-17T12:36:39.147Z,4.10
2023-07-17T12:39:16.619Z,4.20
2023-07-17T12:41:46.173Z,4.07
2023-07-17T12:44:14.486Z,4.10
2023-07-17T12:46:44.386Z,4.03
2023-07-17T12:49:14.511Z,4.43
2023-07-17T12:51:43.189Z,4.22
2023-07-17T12:54:13.047Z,4.28
2023-07-17T12:56:43.228Z,3.88
2023-07-17T12:59:11.607Z,4.22
2023-07-17T13:01:40.005Z,3.83
2023-07-17T13:04:08.360Z,3.75
2023-07-17T13:06:36.623Z,4.53
2023-07-17T13:09:05.295Z,4.03
2023-07-17T13:11:33.708Z,3.90
2023-07-17T13:14:03.976Z,4.47
2023-07-17T13:16:32.577Z,4.20
2023-07-17T13:19:01.129Z,3.80
2023-07-17T13:21:29.905Z,4.05
2023-07-17T13:23:59.923Z,4.20
2023-07-17T13:26:34.714Z,4.45
2023-07-17T13:29:08.355Z,4.32
2023-07-17T13:31:37.136Z,4.40
2023-07-17T13:34:05.675Z,4.32
2023-07-17T13:36:34.024Z,4.03
2023-07-17T13:39:02.605Z,4.00
2023-07-17T13:41:45.886Z,4.53
2023-07-17T13:44:16.794Z,4.57
2023-07-17T13:46:46.773Z,4.03
2023-07-17T13:49:15.456Z,3.65
2023-07-17T13:51:46.193Z,4.15
2023-07-17T13:54:19.973Z,4.13
2023-07-17T13:59:21.577Z,3.95
2023-07-17T14:01:49.956Z,4.53
2023-07-17T14:04:18.269Z,4.57
2023-07-17T14:06:47.120Z,4.22
2023-07-17T14:09:15.518Z,4.03
2023-07-17T14:11:53.793Z,4.00
2023-07-17T14:14:27.163Z,4.15
2023-07-17T14:16:55.844Z,4.53
2023-07-17T14:19:24.379Z,4.55
2023-07-17T14:21:53.084Z,4.38
2023-07-17T14:24:21.551Z,4.07
2023-07-17T14:26:50.260Z,4.80
2023-07-17T14:29:19.302Z,3.45
2023-07-17T14:31:49.116Z,3.90
2023-07-17T14:34:17.572Z,4.63
2023-07-17T14:36:46.060Z,4.43
2023-07-17T14:39:14.345Z,4.00
2023-07-17T14:41:42.864Z,4.15
2023-07-17T14:44:11.166Z,3.65
2023-07-17T14:46:39.460Z,4.00
2023-07-17T14:49:09.342Z,4.10
2023-07-17T14:51:37.770Z,4.10
2023-07-17T14:54:06.309Z,3.85
2023-07-17T14:56:34.720Z,4.35
2023-07-17T14:59:03.023Z,3.50
2023-07-17T15:01:31.535Z,3.70
2023-07-17T15:04:00.029Z,3.75
2023-07-17T15:06:30.294Z,3.88
2023-07-17T15:08:58.778Z,3.90
2023-07-17T15:11:27.112Z,4.35
2023-07-17T15:13:55.780Z,4.60
2023-07-17T15:16:24.219Z,3.47
2023-07-17T15:18:52.512Z,3.50
2023-07-17T15:21:20.912Z,3.95
2023-07-17T15:23:50.736Z,3.65
2023-07-17T15:26:20.060Z,3.58
2023-07-17T15:28:48.761Z,3.63
2023-07-17T15:31:17.053Z,3.58
2023-07-17T15:33:45.501Z,3.65
2023-07-17T15:36:14.238Z,3.75
2023-07-17T15:38:42.539Z,4.43
2023-07-17T15:41:14.348Z,3.65
2023-07-17T15:43:42.943Z,3.83
2023-07-17T15:46:11.348Z,3.33
2023-07-17T15:48:39.881Z,3.78
2023-07-17T15:51:08.179Z,3.78
2023-07-17T15:53:36.452Z,3.30
2023-07-17T15:56:04.932Z,3.47
2023-07-17T15:58:34.714Z,3.30
2023-07-17T16:01:05.577Z,3.67
2023-07-17T16:03:33.877Z,3.47
2023-07-17T16:06:12.210Z,3.80
2023-07-17T16:08:40.507Z,3.65
2023-07-17T16:11:08.939Z,3.25
2023-07-17T16:13:38.933Z,3.40
2023-07-17T16:16:07.661Z,3.75
2023-07-17T16:18:36.981Z,3.40
2023-07-17T16:21:05.393Z,3.80
2023-07-17T16:23:33.785Z,3.28
2023-07-17T16:26:02.087Z,3.35
2023-07-17T16:28:30.392Z,3.33
2023-07-17T16:31:00.053Z,3.20
2023-07-17T16:33:28.461Z,3.72
2023-07-17T16:35:56.710Z,3.17
2023-07-17T16:38:25.034Z,3.40
2023-07-17T16:40:53.361Z,3.75
2023-07-17T16:43:21.638Z,3.33
2023-07-17T16:45:53.884Z,3.50
2023-07-17T16:48:23.542Z,3.55
2023-07-17T16:50:51.827Z,3.30
2023-07-17T16:53:20.065Z,3.65
2023-07-17T16:55:48.479Z,3.45
2023-07-17T16:58:17.052Z,3.30
2023-07-17T17:00:45.303Z,4.35
2023-07-17T17:03:13.803Z,3.45
2023-07-17T17:05:43.595Z,3.47
2023-07-17T17:08:11.824Z,3.45
2023-07-17T17:10:40.176Z,3.33
2023-07-17T17:13:08.459Z,3.20
2023-07-17T17:15:36.862Z,3.42
2023-07-17T17:18:05.715Z,3.38
2023-07-17T17:20:35.226Z,3.45
2023-07-17T17:23:04.965Z,3.33
2023-07-17T17:25:33.291Z,4.05
2023-07-17T17:28:01.983Z,3.38
2023-07-17T17:30:30.545Z,3.58
2023-07-17T17:32:58.915Z,3.25
2023-07-17T17:35:27.294Z,3.40
2023-07-17T17:37:55.623Z,3.08
2023-07-17T17:40:25.267Z,3.25
2023-07-17T17:42:53.594Z,2.83
2023-07-17T17:45:21.900Z,3.17
2023-07-17T17:47:50.372Z,3.10
2023-07-17T17:50:18.890Z,3.20
2023-07-17T17:52:47.243Z,3.70
2023-07-17T17:55:15.694Z,3.05
2023-07-17T17:57:45.453Z,3.42
2023-07-17T18:00:15.438Z,3.28
2023-07-17T18:02:49.956Z,3.05
2023-07-17T18:05:18.505Z,3.05
2023-07-17T18:07:47.358Z,2.67
2023-07-17T18:10:15.771Z,2.83
2023-07-17T18:12:45.506Z,2.80
2023-07-17T18:15:14.301Z,2.50
2023-07-17T18:17:42.649Z,3.20
2023-07-17T18:20:11.988Z,2.88
2023-07-17T18:22:40.894Z,2.58
2023-07-17T18:25:12.789Z,2.58
2023-07-17T18:27:41.818Z,2.60
2023-07-17T18:30:12.687Z,2.90
2023-07-17T18:32:41.340Z,2.60
2023-07-17T18:35:11.053Z,2.50
2023-07-17T18:37:39.512Z,2.63
2023-07-17T18:40:10.994Z,2.75
2023-07-17T18:42:39.507Z,2.42
2023-07-17T18:45:11.833Z,2.15
2023-07-17T18:47:40.980Z,2.67
2023-07-17T18:50:10.556Z,2.75
2023-07-17T18:52:38.926Z,2.30
2023-07-17T18:55:08.837Z,2.20
2023-07-17T18:57:37.465Z,2.30
2023-07-17T19:00:10.066Z,2.38
2023-07-17T19:02:40.918Z,2.47
2023-07-17T19:05:10.410Z,2.13
2023-07-17T19:07:38.742Z,2.03
2023-07-17T19:10:08.671Z,2.15
2023-07-17T19:12:37.014Z,2.33
2023-07-17T19:15:08.134Z,2.45
2023-07-17T19:17:37.521Z,1.90
2023-07-17T19:20:08.404Z,2.20
2023-07-17T19:22:37.027Z,2.63
2023-07-17T19:25:06.391Z,2.40
2023-07-17T19:27:34.792Z,2.40
2023-07-17T19:30:03.107Z,2.10
2023-07-17T19:32:31.331Z,2.00
2023-07-17T19:34:59.622Z,2.47
2023-07-17T19:37:29.324Z,2.42
2023-07-17T19:39:57.765Z,2.67
2023-07-17T19:42:26.233Z,2.40
2023-07-17T19:44:57.364Z,2.40
2023-07-17T19:47:25.795Z,2.13
2023-07-17T19:49:54.288Z,2.20
2023-07-17T19:52:24.914Z,2.17
2023-07-17T19:54:54.542Z,2.63
2023-07-17T19:57:22.820Z,2.00
2023-07-17T19:59:51.279Z,2.38
2023-07-17T20:02:19.707Z,2.00
2023-07-17T20:04:49.050Z,1.90
2023-07-17T20:07:27.513Z,2.00
2023-07-17T20:09:57.156Z,2.00
2023-07-17T20:12:25.811Z,2.28
2023-07-17T20:14:54.048Z,2.10
2023-07-17T20:17:22.464Z,2.13
2023-07-17T20:19:50.729Z,2.58
2023-07-17T20:22:19.085Z,2.10
2023-07-17T20:24:48.831Z,2.17
2023-07-17T20:27:18.836Z,2.20
2023-07-17T20:29:47.627Z,2.35
2023-07-17T20:32:16.819Z,2.33
2023-07-17T20:34:45.484Z,2.40
2023-07-17T20:37:13.748Z,2.20
2023-07-17T20:39:42.207Z,2.33
2023-07-17T20:42:11.691Z,2.20
2023-07-17T20:44:41.284Z,2.13
2023-07-17T20:47:09.903Z,2.65
2023-07-17T20:49:40.265Z,2.17
2023-07-17T20:52:08.595Z,2.40
2023-07-17T20:54:37.047Z,2.85
2023-07-17T20:57:06.060Z,2.20
2023-07-17T20:59:34.617Z,2.30
2023-07-17T21:02:04.463Z,1.83
2023-07-17T21:04:32.897Z,1.95
2023-07-17T21:07:01.260Z,2.20
2023-07-17T21:09:29.649Z,2.30
2023-07-17T21:11:57.912Z,2.08
2023-07-17T21:14:26.434Z,2.17
2023-07-17T21:16:54.986Z,1.83
2023-07-17T21:19:24.633Z,2.10
2023-07-17T21:21:52.897Z,1.83
2023-07-17T21:24:21.765Z,1.92
2023-07-17T21:26:50.002Z,2.40
2023-07-17T21:29:18.323Z,2.30
2023-07-17T21:31:46.670Z,2.00
2023-07-17T21:34:14.923Z,1.98
2023-07-17T21:36:44.820Z,2.10
2023-07-17T21:39:13.073Z,2.17
2023-07-17T21:41:41.392Z,2.10
2023-07-17T21:44:10.019Z,2.15
2023-07-17T21:46:38.683Z,1.92
2023-07-17T21:49:07.077Z,2.20
2023-07-17T21:51:35.346Z,2.00
2023-07-17T21:54:05.089Z,1.83
2023-07-17T21:56:33.594Z,1.75
2023-07-17T21:59:01.960Z,2.15
2023-07-17T22:01:30.704Z,2.30
2023-07-17T22:03:59.196Z,2.38
2023-07-17T22:06:34.235Z,2.17
2023-07-17T22:09:04.282Z,2.58
2023-07-17T22:11:32.666Z,1.95
2023-07-17T22:14:02.528Z,1.77
2023-07-17T22:16:32.037Z,2.05
2023-07-17T22:19:00.574Z,1.98
2023-07-17T22:21:29.099Z,2.20
2023-07-17T22:23:57.471Z,2.00
2023-07-17T22:26:27.089Z,1.88
2023-07-17T22:28:56.942Z,1.77
2023-07-17T22:31:25.306Z,2.00
2023-07-17T22:33:54.081Z,1.98
2023-07-17T22:36:22.399Z,2.50
2023-07-17T22:38:50.753Z,1.90
2023-07-17T22:41:19.733Z,2.15
2023-07-17T22:43:49.573Z,2.03
2023-07-17T22:46:18.357Z,1.90
2023-07-17T22:48:46.689Z,1.90
2023-07-17T22:51:15.088Z,2.00
2023-07-17T22:53:43.344Z,1.60
2023-07-17T22:56:11.843Z,1.75
2023-07-17T22:58:40.210Z,2.00
2023-07-17T23:01:09.886Z,1.70
2023-07-17T23:03:38.163Z,1.80
2023-07-17T23:06:06.928Z,2.25
2023-07-17T23:08:35.257Z,1.80
2023-07-17T23:11:03.694Z,2.38
2023-07-17T23:13:31.992Z,2.03
2023-07-17T23:16:00.294Z,2.15
2023-07-17T23:18:30.112Z,1.77
2023-07-17T23:20:58.527Z,2.00
2023-07-17T23:23:26.884Z,1.90
2023-07-17T23:25:55.179Z,2.20
2023-07-17T23:28:25.518Z,2.15
2023-07-17T23:30:53.763Z,2.05
2023-07-17T23:33:22.088Z,2.15
2023-07-17T23:35:51.823Z,2.53
2023-07-17T23:38:20.755Z,2.17
2023-07-17T23:40:49.008Z,2.10
2023-07-17T23:43:17.218Z,2.20
2023-07-17T23:45:45.792Z,1.70
2023-07-17T23:48:14.721Z,2.08
2023-07-17T23:50:43.140Z,2.15
2023-07-17T23:53:12.736Z,2.20
2023-07-17T23:55:41.083Z,2.42
2023-07-17T23:58:10.213Z,2.20
